Flight Track Log - Related Links

Times and Time Zones

All times are in EDT time to prevent confusion due to time zone crossing. See the ASA128 flight status page for this flight to view local times or setup timezone preferences in your user account.

Time Position Orientation Groundspeed Altitude Reporting Facility
EDT Latitude Longitude Course Direction KTS MPH feet Rate Location/Type
Sun 05:34:49 AM 64.7167 -147.7000 124° Southeast 270 311 4,700  Level Anchorage Center
Sun 05:35:49 AM 64.6667 -147.5333 125° Southeast 280 322 7,500 2,650 Climbing Anchorage Center
Sun 05:36:49 AM 64.6333 -147.4000 120° Southeast 280 322 10,000 2,300 Climbing Anchorage Center
Sun 05:37:49 AM 64.5833 -147.2167 122° Southeast 320 368 12,100 2,150 Climbing Anchorage Center
Sun 05:38:00 AM 64.3873 -146.5195 123° Southeast  Level FlightAware Approximate
Sun 05:38:49 AM 64.5333 -147.0333 122° Southeast 350 403 14,300  Level Anchorage Center
Sun 05:39:00 AM 64.3276 -146.3109 123° Southeast  Level FlightAware Approximate
Sun 05:39:50 AM 64.4667 -146.8667 133° Southeast 370 426 16,700  Level Anchorage Center
Sun 05:40:00 AM 64.2676 -146.1032 124° Southeast  Level FlightAware Approximate
Sun 05:40:49 AM 64.3833 -146.6833 136° Southeast 390 449 19,300  Level Anchorage Center
Sun 05:41:49 AM 64.3167 -146.5000 130° Southeast 400 460 21,400 2,050 Climbing Anchorage Center
Sun 05:42:49 AM 64.2333 -146.3000 134° Southeast 420 483 23,400 1,884 Climbing Anchorage Center
Sun 05:43:50 AM 64.1500 -146.1000 134° Southeast 430 495 25,200 1,785 Climbing Anchorage Center
Sun 05:44:50 AM 64.0667 -145.9000 134° Southeast 440 506 27,000 1,600 Climbing Anchorage Center
Sun 05:45:50 AM 63.9833 -145.7000 133° Southeast 450 518 28,400 1,300 Climbing Anchorage Center
Sun 05:46:50 AM 63.9000 -145.5000 133° Southeast 460 529 29,600 1,450 Climbing Anchorage Center
Sun 05:47:50 AM 63.8000 -145.2833 136° Southeast 460 529 31,300 1,400 Climbing Anchorage Center
Sun 05:48:50 AM 63.7167 -145.0833 133° Southeast 460 529 32,400 1,100 Climbing Anchorage Center
Sun 05:49:50 AM 63.6167 -144.8833 138° Southeast 470 541 33,500 1,041 Climbing Anchorage Center
Sun 05:50:51 AM 63.5333 -144.6833 133° Southeast 480 552 34,500 1,091 Climbing Anchorage Center
Sun 05:51:51 AM 63.4333 -144.4833 138° Southeast 470 541 35,700 908 Climbing Anchorage Center
Sun 05:52:50 AM 63.3333 -144.2667 136° Southeast 470 541 36,300 655 Climbing Anchorage Center
Sun 05:53:50 AM 63.2500 -144.0667 133° Southeast 480 552 37,000 347 Climbing Anchorage Center
Sun 05:54:51 AM 63.1500 -143.8667 138° Southeast 480 552 37,000  Level Anchorage Center
Sun 05:55:51 AM 63.0667 -143.6500 130° Southeast 480 552 37,000  Level Anchorage Center
Sun 05:56:51 AM 62.9667 -143.4500 138° Southeast 480 552 37,000  Level Anchorage Center
Sun 05:57:51 AM 62.8667 -143.2333 135° Southeast 470 541 37,000  Level Anchorage Center
Sun 05:58:51 AM 62.7667 -143.0333 137° Southeast 470 541 37,000  Level Anchorage Center
Sun 05:59:51 AM 62.6833 -142.8333 132° Southeast 480 552 37,000  Level Anchorage Center
Sun 06:00:51 AM 62.5833 -142.6333 137° Southeast 470 541 37,000  Level Anchorage Center
Sun 06:01:51 AM 62.4833 -142.4667 142° Southeast 460 529 37,000  Level Anchorage Center
Sun 06:02:52 AM 62.4000 -142.3000 137° Southeast 430 495 37,000  Level Anchorage Center
Sun 06:03:52 AM 62.3000 -142.1000 137° Southeast 460 529 37,000  Level Anchorage Center
Sun 06:04:52 AM 62.2000 -141.9167 139° Southeast 460 529 37,000  Level Anchorage Center
Sun 06:05:52 AM 62.1000 -141.7167 137° Southeast 470 541 37,000  Level Anchorage Center
Sun 06:06:52 AM 62.0167 -141.5500 137° Southeast 460 529 37,000  Level Anchorage Center
Sun 06:07:52 AM 61.9167 -141.3667 139° Southeast 460 529 37,000  Level Anchorage Center
Sun 06:08:52 AM 61.8167 -141.1667 137° Southeast 470 541 37,000  Level Anchorage Center
Sun 06:09:52 AM 61.7167 -140.9833 139° Southeast 470 541 37,000  Level Anchorage Center
Sun 06:10:53 AM 61.6167 -140.8000 139° Southeast 470 541 37,000  Level Anchorage Center
Sun 06:11:53 AM 61.5167 -140.6167 139° Southeast 470 541 37,000  Level Anchorage Center
Sun 06:14:23 AM 61.2833 -140.1667 137° Southeast 480 552 37,000  Level Anchorage Center
Sun 06:15:23 AM 61.1833 -139.9833 138° Southeast 470 541 37,000  Level Anchorage Center
Sun 06:16:23 AM 61.0833 -139.8167 141° Southeast 460 529 37,000  Level Anchorage Center
Sun 06:17:23 AM 60.9833 -139.6500 141° Southeast 450 518 37,000  Level Anchorage Center
Sun 06:18:23 AM 60.8833 -139.4833 141° Southeast 450 518 37,000  Level Anchorage Center
Sun 06:19:23 AM 60.7833 -139.3167 141° Southeast 450 518 37,000  Level Anchorage Center
Sun 06:20:23 AM 60.6833 -139.1500 141° Southeast 460 529 37,000  Level Anchorage Center
Sun 06:21:24 AM 60.6000 -138.9833 135° Southeast 450 518 37,000  Level Anchorage Center
Sun 06:22:24 AM 60.5000 -138.8167 141° Southeast 450 518 37,000  Level Anchorage Center
Sun 06:23:24 AM 60.4000 -138.6500 141° Southeast 450 518 37,000  Level Anchorage Center
Sun 06:24:24 AM 60.3000 -138.5000 143° Southeast 450 518 37,000  Level Anchorage Center
Sun 06:25:24 AM 60.2000 -138.3333 140° Southeast 460 529 37,000  Level Anchorage Center
Sun 06:26:24 AM 60.1000 -138.1667 140° Southeast 460 529 37,000  Level Anchorage Center
Sun 06:27:24 AM 60.0000 -138.0000 140° Southeast 460 529 37,000  Level Anchorage Center
Sun 06:28:24 AM 59.9000 -137.8500 143° Southeast 460 529 37,000  Level Anchorage Center
Sun 06:29:24 AM 59.8000 -137.6833 140° Southeast 460 529 37,000  Level Anchorage Center
Sun 06:30:25 AM 59.7000 -137.5333 143° Southeast 450 518 37,000  Level Anchorage Center
Sun 06:31:24 AM 59.6000 -137.3833 143° Southeast 450 518 37,000  Level Anchorage Center
Sun 06:32:24 AM 59.5000 -137.2167 140° Southeast 450 518 37,000  Level Anchorage Center
Sun 06:33:24 AM 59.4000 -137.0667 143° Southeast 450 518 37,000  Level Anchorage Center
Sun 06:34:25 AM 59.3000 -136.9167 143° Southeast 450 518 37,000  Level Anchorage Center
Sun 06:35:25 AM 59.2000 -136.7667 142° Southeast 450 518 37,000  Level Anchorage Center
Sun 06:36:25 AM 59.1167 -136.6167 137° Southeast 440 506 37,000  Level Anchorage Center
Sun 06:37:25 AM 59.0167 -136.4667 142° Southeast 450 518 37,000  Level Anchorage Center
Sun 06:38:25 AM 58.9167 -136.3167 142° Southeast 440 506 37,000  Level Anchorage Center
Sun 06:39:25 AM 58.8167 -136.1833 145° Southeast 450 518 37,000  Level Anchorage Center
Sun 06:40:25 AM 58.7333 -136.0500 140° Southeast 440 506 37,000  Level Anchorage Center
Sun 06:41:26 AM 58.6333 -135.9167 145° Southeast 440 506 37,000  Level Anchorage Center
Sun 06:42:26 AM 58.5333 -135.7667 142° Southeast 440 506 37,000  Level Anchorage Center
Sun 06:43:26 AM 58.4333 -135.6333 145° Southeast 440 506 37,000  Level Anchorage Center
Sun 06:45:26 AM 58.2333 -135.3500 143° Southeast 450 518 37,000  Level Anchorage Center
Sun 06:46:26 AM 58.1333 -135.2000 142° Southeast 450 518 37,000  Level Anchorage Center
Sun 06:47:26 AM 58.0500 -135.0500 136° Southeast 450 518 37,000  Level Anchorage Center
Sun 06:48:26 AM 57.9500 -134.8833 138° Southeast 450 518 37,000  Level Anchorage Center
Sun 06:49:26 AM 57.8500 -134.7333 141° Southeast 450 518 37,000  Level Anchorage Center
Sun 06:50:26 AM 57.7667 -134.5833 136° Southeast 450 518 37,000  Level Anchorage Center
Sun 06:51:26 AM 57.6667 -134.4167 138° Southeast 450 518 37,000  Level Anchorage Center
Sun 06:52:27 AM 57.5833 -134.2667 136° Southeast 440 506 37,000  Level Anchorage Center
Sun 06:53:27 AM 57.4833 -134.1167 141° Southeast 450 518 37,000  Level Anchorage Center
Sun 06:54:27 AM 57.3833 -133.9833 144° Southeast 430 495 37,000  Level Anchorage Center
Sun 06:55:27 AM 57.3000 -133.8333 136° Southeast 440 506 37,000  Level Anchorage Center
Sun 06:56:27 AM 57.2000 -133.6833 141° Southeast 440 506 37,000  Level Anchorage Center
Sun 06:57:27 AM 57.1167 -133.5333 136° Southeast 430 495 37,000  Level Anchorage Center
Sun 06:58:27 AM 57.0167 -133.4000 144° Southeast 440 506 37,000  Level Anchorage Center
Sun 06:59:28 AM 56.9167 -133.2500 141° Southeast 430 495 37,000  Level Anchorage Center
Sun 07:00:28 AM 56.8333 -133.1000 135° Southeast 440 506 37,000  Level Anchorage Center
Sun 07:01:28 AM 56.7333 -132.9667 144° Southeast 440 506 37,000  Level Anchorage Center
Sun 07:02:28 AM 56.6333 -132.8167 140° Southeast 450 518 37,000  Level Anchorage Center
Sun 07:03:28 AM 56.5500 -132.6667 135° Southeast 450 518 37,000  Level Anchorage Center
Sun 07:04:28 AM 56.4500 -132.5333 144° Southeast 440 506 37,000  Level Anchorage Center
Sun 07:05:28 AM 56.3500 -132.3833 140° Southeast 440 506 37,000  Level Anchorage Center
Sun 07:06:28 AM 56.2500 -132.2500 143° Southeast 430 495 37,000  Level Anchorage Center
Sun 07:07:28 AM 56.1667 -132.1167 138° Southeast 430 495 37,000  Level Anchorage Center
Sun 07:08:28 AM 56.0667 -131.9833 143° Southeast 440 506 37,000  Level Anchorage Center
Sun 07:09:28 AM 55.9833 -131.8500 138° Southeast 440 506 37,000  Level Anchorage Center
Sun 07:10:29 AM 55.8833 -131.7167 143° Southeast 440 506 37,000  Level Anchorage Center
Sun 07:11:29 AM 55.7833 -131.5667 140° Southeast 440 506 37,000  Level Anchorage Center
Sun 07:12:29 AM 55.7000 -131.4333 138° Southeast 450 518 37,000  Level Anchorage Center
Sun 07:13:29 AM 55.6000 -131.3000 143° Southeast 450 518 37,000  Level Anchorage Center
Sun 07:14:29 AM 55.4833 -131.1667 147° Southeast 450 518 37,000  Level Anchorage Center
Sun 07:15:29 AM 55.3833 -131.0167 140° Southeast 450 518 37,000  Level Anchorage Center
Sun 07:16:29 AM 55.2833 -130.8833 143° Southeast 450 518 37,000  Level Anchorage Center
Sun 07:17:29 AM 55.1833 -130.7500 143° Southeast 460 529 37,000  Level Anchorage Center
Sun 07:18:30 AM 55.0833 -130.6167 143° Southeast 460 529 37,000  Level Anchorage Center
Sun 07:19:30 AM 55.0000 -130.4833 137° Southeast 460 529 37,000  Level Anchorage Center
Sun 07:20:43 AM 54.8667 -130.3500 150° Southeast 460 529 37,000  Level Vancouver Center
Sun 07:21:43 AM 54.7667 -130.2167 142° Southeast 460 529 37,000  Level Vancouver Center
Sun 07:22:43 AM 54.6500 -130.0833 147° Southeast 460 529 37,000  Level Vancouver Center
Sun 07:23:43 AM 54.5667 -129.9500 137° Southeast 460 529 37,000  Level Vancouver Center
Sun 07:24:43 AM 54.4667 -129.8333 146° Southeast 470 541 37,000  Level Vancouver Center
Sun 07:25:43 AM 54.3500 -129.7000 146° Southeast 460 529 37,000  Level Vancouver Center
Sun 07:26:43 AM 54.2667 -129.5667 137° Southeast 460 529 37,000  Level Vancouver Center
Sun 07:27:43 AM 54.1500 -129.4167 143° Southeast 460 529 37,000  Level Vancouver Center
Sun 07:28:43 AM 54.0333 -129.2833 146° Southeast 460 529 37,000  Level Vancouver Center
Sun 07:29:43 AM 53.9500 -129.1667 140° Southeast 460 529 37,000  Level Vancouver Center
Sun 07:30:43 AM 53.8333 -129.0333 146° Southeast 460 529 37,000  Level Vancouver Center
Sun 07:31:43 AM 53.7333 -128.9000 142° Southeast 460 529 37,000  Level Vancouver Center
Sun 07:32:43 AM 53.6333 -128.7833 145° Southeast 460 529 37,000  Level Vancouver Center
Sun 07:33:43 AM 53.5333 -128.6500 142° Southeast 460 529 37,000  Level Vancouver Center
Sun 07:34:43 AM 53.4167 -128.5333 149° Southeast 460 529 37,000  Level Vancouver Center
Sun 07:35:43 AM 53.3167 -128.4167 145° Southeast 460 529 37,000  Level Vancouver Center
Sun 07:36:43 AM 53.2167 -128.2667 138° Southeast 460 529 37,000  Level Vancouver Center
Sun 07:37:43 AM 53.1167 -128.1333 141° Southeast 480 552 37,000  Level Vancouver Center
Sun 07:38:43 AM 53.0167 -128.0167 145° Southeast 460 529 37,000  Level Vancouver Center
Sun 07:39:43 AM 52.9167 -127.9000 145° Southeast 460 529 37,000  Level Vancouver Center
Sun 07:40:43 AM 52.8000 -127.7667 145° Southeast 460 529 37,000  Level Vancouver Center
Sun 07:41:43 AM 52.7000 -127.6500 145° Southeast 460 529 37,000  Level Vancouver Center
Sun 07:42:43 AM 52.5833 -127.5333 149° Southeast 460 529 37,000  Level Vancouver Center
Sun 07:43:43 AM 52.4833 -127.4167 145° Southeast 460 529 37,000  Level Vancouver Center
Sun 07:44:43 AM 52.3833 -127.3000 145° Southeast 460 529 37,000  Level Vancouver Center
Sun 07:45:43 AM 52.2833 -127.1833 144° Southeast 460 529 37,000  Level Vancouver Center
Sun 07:46:43 AM 52.1667 -127.0667 148° Southeast 460 529 37,000  Level Vancouver Center
Sun 07:47:43 AM 52.0667 -126.9500 144° Southeast 460 529 37,000  Level Vancouver Center
Sun 07:48:43 AM 51.9500 -126.8000 142° Southeast 460 529 37,000  Level Vancouver Center
Sun 07:49:43 AM 51.8500 -126.7167 153° Southeast 460 529 37,000  Level Vancouver Center
Sun 07:50:43 AM 51.7667 -126.6000 139° Southeast 460 529 37,000  Level Vancouver Center
Sun 07:51:43 AM 51.6500 -126.4667 145° Southeast 460 529 37,000  Level Vancouver Center
Sun 07:52:43 AM 51.5500 -126.3500 144° Southeast 460 529 37,000  Level Vancouver Center
Sun 07:53:43 AM 51.4333 -126.2333 148° Southeast 460 529 37,000  Level Vancouver Center
Sun 07:54:43 AM 51.3333 -126.1167 144° Southeast 450 518 37,000  Level Vancouver Center
Sun 07:55:43 AM 51.2167 -126.0167 152° Southeast 450 518 37,000  Level Vancouver Center
Sun 07:56:43 AM 51.1167 -125.9000 144° Southeast 460 529 37,000  Level Vancouver Center
Sun 07:57:43 AM 51.0000 -125.7833 148° Southeast 460 529 37,000  Level Vancouver Center
Sun 07:58:43 AM 50.9167 -125.6833 143° Southeast 460 529 37,000  Level Vancouver Center
Sun 07:59:43 AM 50.8167 -125.5667 144° Southeast 460 529 37,000  Level Vancouver Center
Sun 08:00:43 AM 50.7000 -125.4667 151° Southeast 460 529 37,000  Level Vancouver Center
Sun 08:01:43 AM 50.6000 -125.3500 143° Southeast 460 529 37,000  Level Vancouver Center
Sun 08:02:43 AM 50.4833 -125.2500 151° Southeast 450 518 37,000  Level Vancouver Center
Sun 08:03:43 AM 50.3833 -125.1333 143° Southeast 450 518 37,000  Level Vancouver Center
Sun 08:04:43 AM 50.2667 -125.0333 151° Southeast 450 518 37,000  Level Vancouver Center
Sun 08:05:43 AM 50.1667 -124.9167 143° Southeast 450 518 37,000  Level Vancouver Center
Sun 08:06:43 AM 50.0667 -124.8167 147° Southeast 450 518 37,000  Level Vancouver Center
Sun 08:07:43 AM 49.9667 -124.7000 143° Southeast 450 518 37,000  Level Vancouver Center
Sun 08:08:43 AM 49.8500 -124.6000 151° Southeast 450 518 37,000  Level Vancouver Center
Sun 08:09:43 AM 49.7500 -124.5000 147° Southeast 450 518 37,000  Level Vancouver Center
Sun 08:10:43 AM 49.6500 -124.4000 147° Southeast 450 518 37,000  Level Vancouver Center
Sun 08:11:43 AM 49.5500 -124.2833 143° Southeast 450 518 37,000  Level Vancouver Center
Sun 08:12:43 AM 49.4333 -124.1833 151° Southeast 450 518 37,000  Level Vancouver Center
Sun 08:13:43 AM 49.3333 -124.0833 147° Southeast 450 518 37,000  Level Vancouver Center
Sun 08:14:43 AM 49.2167 -123.9833 151° Southeast 450 518 37,000  Level Vancouver Center
Sun 08:15:43 AM 49.1167 -123.8833 147° Southeast 440 506 37,000  Level Vancouver Center
Sun 08:16:43 AM 49.0167 -123.7667 143° Southeast 440 506 37,000  Level Vancouver Center
Sun 08:17:43 AM 48.9167 -123.6667 147° Southeast 440 506 37,000  Level Vancouver Center
Sun 08:18:43 AM 48.8167 -123.5667 147° Southeast 440 506 37,000 -150 Level Vancouver Center
Sun 08:19:43 AM 48.7167 -123.5000 156° South 440 506 36,700 -1,750 Descending Vancouver Center
Sun 08:20:43 AM 48.6000 -123.4000 150° Southeast 420 483 33,500 -3,100 Descending Vancouver Center
Sun 08:21:43 AM 48.5167 -123.3000 142° Southeast 430 495 30,500 -2,800 Descending Vancouver Center
Sun 08:22:43 AM 48.4000 -123.2000 150° Southeast 430 495 27,900 -2,213 Descending Vancouver Center
Sun 08:23:45 AM 48.3314 -123.1161 141° Southeast 412 474 26,000 -2,020 Descending Seattle Center
Sun 08:24:21 AM 48.2697 -123.0633 150° Southeast 390 449 24,600 -2,110 Descending Seattle Center
Sun 08:25:16 AM 48.1894 -122.9878 148° Southeast 381 438 22,800 -2,069 Descending Seattle Center
Sun 08:25:48 AM 48.1411 -122.9422 148° Southeast 377 434 21,600 -2,087 Descending Seattle Center
Sun 08:26:48 AM 48.0567 -122.8644 148° Southeast 365 420 19,600 -1,835 Descending Seattle Center
Sun 08:27:49 AM 47.9736 -122.7911 149° Southeast 354 407 17,900 -1,736 Descending Seattle Center
Sun 08:28:49 AM 47.8964 -122.7214 149° Southeast 327 376 16,100 -1,750 Descending Seattle Center
Sun 08:29:49 AM 47.8211 -122.6533 149° Southeast 320 368 14,400 -1,750 Descending Seattle Center
Sun 08:30:49 AM 47.7464 -122.5858 149° Southeast 311 358 12,600 -1,400 Descending Seattle Center
Sun 08:31:49 AM 47.6772 -122.5236 149° Southeast 293 337 11,600 -1,250 Descending Seattle Center
Sun 08:32:49 AM 47.6058 -122.4628 150° Southeast 296 341 10,100 -1,388 Descending Seattle Center
Sun 08:33:50 AM 47.5308 -122.4583 178° South 270 311 8,800 -1,091 Descending Seattle Center
Sun 08:34:50 AM 47.4567 -122.4606 181° South 248 285 7,900 -1,250 Descending Seattle Center
Sun 08:35:50 AM 47.3956 -122.4617 181° South 223 257 6,300 -1,550 Descending Seattle Center
Sun 08:36:50 AM 47.3333 -122.4639 181° South 224 258 4,800 -1,400 Descending Seattle Center
Sun 08:37:50 AM 47.2789 -122.4472 168° South 217 250 3,500 -992 Descending Seattle Center
Sun 08:38:51 AM 47.2894 -122.3756 78° East 189 217 2,800 -545 Descending Seattle Center
Sun 08:39:51 AM 47.3233 -122.3236 46° Northeast 177 204 2,400 -700 Descending Seattle Center
Sun 08:40:51 AM 47.3644 -122.3094 13° North 153 176 1,400 -750 Descending Seattle Center
Sun 08:41:51 AM 47.4019 -122.3083 North 136 157 900 -550 Descending Seattle Center
Sun 08:42:51 AM 47.4381 -122.3086 360° North 140 161 300 -600 Descending Seattle Center
Sun 08:44:00 AM 47.4333 -122.3000 45° Northeast  Level FlightAware Approximate

Login

Don't have an account? Register now (free) for customized features, flight alerts, and more!